sensor_id;sensor_type;location;lat;lon;timestamp;temperature;humidity
5647;DHT22;2845;48.626;9.362;2023-06-22T00:02:14;21.70;99.20
5647;DHT22;2845;48.626;9.362;2023-06-22T00:04:48;23.90;99.60
5647;DHT22;2845;48.626;9.362;2023-06-22T00:07:22;21.00;99.10
5647;DHT22;2845;48.626;9.362;2023-06-22T00:09:56;20.90;99.10
5647;DHT22;2845;48.626;9.362;2023-06-22T00:12:32;20.90;99.50
5647;DHT22;2845;48.626;9.362;2023-06-22T00:15:07;21.50;99.70
5647;DHT22;2845;48.626;9.362;2023-06-22T00:17:41;20.80;99.40
5647;DHT22;2845;48.626;9.362;2023-06-22T00:20:16;21.50;99.50
5647;DHT22;2845;48.626;9.362;2023-06-22T00:22:50;20.80;99.60
5647;DHT22;2845;48.626;9.362;2023-06-22T00:25:25;20.60;99.70
5647;DHT22;2845;48.626;9.362;2023-06-22T00:28:01;23.30;99.90
5647;DHT22;2845;48.626;9.362;2023-06-22T00:30:36;23.70;99.90
5647;DHT22;2845;48.626;9.362;2023-06-22T00:33:10;23.80;99.90
5647;DHT22;2845;48.626;9.362;2023-06-22T00:35:44;20.50;99.90
5647;DHT22;2845;48.626;9.362;2023-06-22T00:38:18;20.50;99.90
5647;DHT22;2845;48.626;9.362;2023-06-22T00:40:53;20.40;99.90
5647;DHT22;2845;48.626;9.362;2023-06-22T00:43:29;20.40;99.90
5647;DHT22;2845;48.626;9.362;2023-06-22T00:46:03;20.40;99.90
5647;DHT22;2845;48.626;9.362;2023-06-22T00:48:37;20.40;99.90
5647;DHT22;2845;48.626;9.362;2023-06-22T00:51:12;20.40;99.90
5647;DHT22;2845;48.626;9.362;2023-06-22T00:53:47;20.30;99.90
5647;DHT22;2845;48.626;9.362;2023-06-22T00:56:22;20.20;99.90
5647;DHT22;2845;48.626;9.362;2023-06-22T00:59:00;23.20;99.90
5647;DHT22;2845;48.626;9.362;2023-06-22T01:01:36;20.20;99.90
5647;DHT22;2845;48.626;9.362;2023-06-22T01:04:12;22.20;99.90
5647;DHT22;2845;48.626;9.362;2023-06-22T01:06:52;23.00;99.90
5647;DHT22;2845;48.626;9.362;2023-06-22T01:09:35;20.20;99.90
5647;DHT22;2845;48.626;9.362;2023-06-22T01:12:14;20.00;99.90
5647;DHT22;2845;48.626;9.362;2023-06-22T01:14:55;20.10;99.90
5647;DHT22;2845;48.626;9.362;2023-06-22T01:17:35;20.20;99.90
5647;DHT22;2845;48.626;9.362;2023-06-22T01:20:10;19.90;99.90
5647;DHT22;2845;48.626;9.362;2023-06-22T01:22:58;19.90;99.90
5647;DHT22;2845;48.626;9.362;2023-06-22T01:25:46;19.90;99.90
5647;DHT22;2845;48.626;9.362;2023-06-22T01:28:43;19.80;99.90
5647;DHT22;2845;48.626;9.362;2023-06-22T01:31:22;19.70;99.90
5647;DHT22;2845;48.626;9.362;2023-06-22T01:34:01;19.70;99.90
5647;DHT22;2845;48.626;9.362;2023-06-22T01:36:38;19.70;99.90
5647;DHT22;2845;48.626;9.362;2023-06-22T01:39:13;19.70;99.90
5647;DHT22;2845;48.626;9.362;2023-06-22T01:41:48;23.10;99.90
5647;DHT22;2845;48.626;9.362;2023-06-22T01:44:25;19.70;99.90
5647;DHT22;2845;48.626;9.362;2023-06-22T01:46:59;19.60;99.90
5647;DHT22;2845;48.626;9.362;2023-06-22T01:49:34;19.60;99.90
5647;DHT22;2845;48.626;9.362;2023-06-22T01:52:08;19.60;99.90
5647;DHT22;2845;48.626;9.362;2023-06-22T01:54:42;22.50;99.90
5647;DHT22;2845;48.626;9.362;2023-06-22T01:57:17;22.70;99.90
5647;DHT22;2845;48.626;9.362;2023-06-22T01:59:59;19.50;99.90
5647;DHT22;2845;48.626;9.362;2023-06-22T02:02:39;19.50;99.90
5647;DHT22;2845;48.626;9.362;2023-06-22T02:05:17;19.60;99.90
5647;DHT22;2845;48.626;9.362;2023-06-22T02:07:56;19.50;99.90
5647;DHT22;2845;48.626;9.362;2023-06-22T02:10:34;19.40;99.90
5647;DHT22;2845;48.626;9.362;2023-06-22T02:13:11;19.50;99.90
5647;DHT22;2845;48.626;9.362;2023-06-22T02:15:48;19.30;99.90
5647;DHT22;2845;48.626;9.362;2023-06-22T02:18:23;19.30;99.90
5647;DHT22;2845;48.626;9.362;2023-06-22T02:20:58;21.90;99.90
5647;DHT22;2845;48.626;9.362;2023-06-22T02:23:32;19.10;99.90
5647;DHT22;2845;48.626;9.362;2023-06-22T02:26:08;19.20;99.90
5647;DHT22;2845;48.626;9.362;2023-06-22T02:28:42;19.30;99.90
5647;DHT22;2845;48.626;9.362;2023-06-22T02:31:18;19.20;99.90
5647;DHT22;2845;48.626;9.362;2023-06-22T02:33:53;19.30;99.90
5647;DHT22;2845;48.626;9.362;2023-06-22T02:36:28;19.70;99.90
5647;DHT22;2845;48.626;9.362;2023-06-22T02:39:03;19.40;99.90
5647;DHT22;2845;48.626;9.362;2023-06-22T02:41:37;19.30;99.90
5647;DHT22;2845;48.626;9.362;2023-06-22T02:44:11;19.10;99.90
5647;DHT22;2845;48.626;9.362;2023-06-22T02:46:48;22.10;99.90
5647;DHT22;2845;48.626;9.362;2023-06-22T02:49:22;19.00;99.90
5647;DHT22;2845;48.626;9.362;2023-06-22T02:51:57;19.10;99.90
5647;DHT22;2845;48.626;9.362;2023-06-22T02:54:31;19.10;99.90
5647;DHT22;2845;48.626;9.362;2023-06-22T02:57:06;19.00;99.90
5647;DHT22;2845;48.626;9.362;2023-06-22T02:59:46;19.60;99.90
5647;DHT22;2845;48.626;9.362;2023-06-22T03:02:22;19.20;99.90
5647;DHT22;2845;48.626;9.362;2023-06-22T03:04:56;19.00;99.90
5647;DHT22;2845;48.626;9.362;2023-06-22T03:07:31;21.70;99.90
5647;DHT22;2845;48.626;9.362;2023-06-22T03:10:06;19.90;99.90
5647;DHT22;2845;48.626;9.362;2023-06-22T03:12:43;18.80;99.90
5647;DHT22;2845;48.626;9.362;2023-06-22T03:15:17;18.90;99.90
5647;DHT22;2845;48.626;9.362;2023-06-22T03:17:56;18.70;99.90
5647;DHT22;2845;48.626;9.362;2023-06-22T03:20:30;18.70;99.90
5647;DHT22;2845;48.626;9.362;2023-06-22T03:23:06;18.70;99.90
5647;DHT22;2845;48.626;9.362;2023-06-22T03:25:41;18.70;99.90
5647;DHT22;2845;48.626;9.362;2023-06-22T03:28:17;18.60;99.90
5647;DHT22;2845;48.626;9.362;2023-06-22T03:30:51;18.50;99.90
5647;DHT22;2845;48.626;9.362;2023-06-22T03:33:27;18.60;99.90
5647;DHT22;2845;48.626;9.362;2023-06-22T03:36:01;18.50;99.90
5647;DHT22;2845;48.626;9.362;2023-06-22T03:38:35;20.70;99.90
5647;DHT22;2845;48.626;9.362;2023-06-22T03:41:13;18.60;99.90
5647;DHT22;2845;48.626;9.362;2023-06-22T03:43:47;19.30;99.90
5647;DHT22;2845;48.626;9.362;2023-06-22T03:46:21;21.60;99.90
5647;DHT22;2845;48.626;9.362;2023-06-22T03:48:57;18.60;99.90
5647;DHT22;2845;48.626;9.362;2023-06-22T03:51:32;21.90;99.90
5647;DHT22;2845;48.626;9.362;2023-06-22T03:54:07;18.70;99.90
5647;DHT22;2845;48.626;9.362;2023-06-22T03:56:41;18.80;99.90
5647;DHT22;2845;48.626;9.362;2023-06-22T03:59:15;18.90;99.90
5647;DHT22;2845;48.626;9.362;2023-06-22T04:01:49;19.00;99.90
5647;DHT22;2845;48.626;9.362;2023-06-22T04:04:25;18.90;99.90
5647;DHT22;2845;48.626;9.362;2023-06-22T04:07:01;19.10;99.90
5647;DHT22;2845;48.626;9.362;2023-06-22T04:09:35;19.00;99.90
5647;DHT22;2845;48.626;9.362;2023-06-22T04:12:09;19.10;99.90
5647;DHT22;2845;48.626;9.362;2023-06-22T04:14:44;19.00;99.90
5647;DHT22;2845;48.626;9.362;2023-06-22T04:17:18;19.20;99.90
5647;DHT22;2845;48.626;9.362;2023-06-22T04:19:54;22.30;99.90
5647;DHT22;2845;48.626;9.362;2023-06-22T04:22:28;21.70;99.90
5647;DHT22;2845;48.626;9.362;2023-06-22T04:25:03;19.20;99.90
5647;DHT22;2845;48.626;9.362;2023-06-22T04:27:37;19.20;99.90
5647;DHT22;2845;48.626;9.362;2023-06-22T04:30:13;21.70;99.90
5647;DHT22;2845;48.626;9.362;2023-06-22T04:32:49;19.20;99.90
5647;DHT22;2845;48.626;9.362;2023-06-22T04:35:30;19.20;99.90
5647;DHT22;2845;48.626;9.362;2023-06-22T04:38:04;19.20;99.90
5647;DHT22;2845;48.626;9.362;2023-06-22T04:40:39;20.80;99.90
5647;DHT22;2845;48.626;9.362;2023-06-22T04:43:13;19.10;99.90
5647;DHT22;2845;48.626;9.362;2023-06-22T04:45:48;19.20;99.90
5647;DHT22;2845;48.626;9.362;2023-06-22T04:48:25;19.30;99.90
5647;DHT22;2845;48.626;9.362;2023-06-22T04:51:06;19.40;99.90
5647;DHT22;2845;48.626;9.362;2023-06-22T04:53:41;21.40;99.90
5647;DHT22;2845;48.626;9.362;2023-06-22T04:56:15;19.50;99.90
5647;DHT22;2845;48.626;9.362;2023-06-22T04:58:50;19.60;99.90
5647;DHT22;2845;48.626;9.362;2023-06-22T05:01:25;19.70;99.90
5647;DHT22;2845;48.626;9.362;2023-06-22T05:03:59;22.20;99.90
5647;DHT22;2845;48.626;9.362;2023-06-22T05:06:37;21.60;99.90
5647;DHT22;2845;48.626;9.362;2023-06-22T05:09:13;20.00;99.90
5647;DHT22;2845;48.626;9.362;2023-06-22T05:11:47;20.10;99.90
5647;DHT22;2845;48.626;9.362;2023-06-22T05:14:22;20.10;99.90
5647;DHT22;2845;48.626;9.362;2023-06-22T05:16:57;21.00;99.90
5647;DHT22;2845;48.626;9.362;2023-06-22T05:19:37;20.50;99.90
5647;DHT22;2845;48.626;9.362;2023-06-22T05:22:12;22.10;99.90
5647;DHT22;2845;48.626;9.362;2023-06-22T05:24:47;20.50;99.90
5647;DHT22;2845;48.626;9.362;2023-06-22T05:27:21;20.40;99.90
5647;DHT22;2845;48.626;9.362;2023-06-22T05:29:56;20.60;99.90
5647;DHT22;2845;48.626;9.362;2023-06-22T05:32:30;23.40;99.90
5647;DHT22;2845;48.626;9.362;2023-06-22T05:35:05;20.80;99.90
5647;DHT22;2845;48.626;9.362;2023-06-22T05:37:41;20.90;99.90
5647;DHT22;2845;48.626;9.362;2023-06-22T05:40:15;21.10;99.90
5647;DHT22;2845;48.626;9.362;2023-06-22T05:42:50;21.30;99.90
5647;DHT22;2845;48.626;9.362;2023-06-22T05:45:24;21.50;99.90
5647;DHT22;2845;48.626;9.362;2023-06-22T05:47:58;24.30;99.90
5647;DHT22;2845;48.626;9.362;2023-06-22T05:50:32;22.00;99.50
5647;DHT22;2845;48.626;9.362;2023-06-22T05:53:08;22.20;99.10
5647;DHT22;2845;48.626;9.362;2023-06-22T05:55:42;22.30;98.60
5647;DHT22;2845;48.626;9.362;2023-06-22T05:58:16;22.50;98.30
5647;DHT22;2845;48.626;9.362;2023-06-22T06:00:51;24.10;98.20
5647;DHT22;2845;48.626;9.362;2023-06-22T06:03:25;22.60;97.90
5647;DHT22;2845;48.626;9.362;2023-06-22T06:06:01;22.60;97.70
5647;DHT22;2845;48.626;9.362;2023-06-22T06:08:37;22.70;97.70
5647;DHT22;2845;48.626;9.362;2023-06-22T06:11:11;22.80;97.50
5647;DHT22;2845;48.626;9.362;2023-06-22T06:13:46;22.90;97.30
5647;DHT22;2845;48.626;9.362;2023-06-22T06:16:20;23.00;97.00
5647;DHT22;2845;48.626;9.362;2023-06-22T06:18:54;23.00;97.00
5647;DHT22;2845;48.626;9.362;2023-06-22T06:21:28;22.40;96.70
5647;DHT22;2845;48.626;9.362;2023-06-22T06:24:05;23.30;96.60
5647;DHT22;2845;48.626;9.362;2023-06-22T06:26:39;23.40;96.50
5647;DHT22;2845;48.626;9.362;2023-06-22T06:29:15;24.40;96.40
5647;DHT22;2845;48.626;9.362;2023-06-22T06:31:50;23.60;96.10
5647;DHT22;2845;48.626;9.362;2023-06-22T06:34:26;23.60;96.10
5647;DHT22;2845;48.626;9.362;2023-06-22T06:37:00;23.70;95.90
5647;DHT22;2845;48.626;9.362;2023-06-22T06:39:36;23.80;95.30
5647;DHT22;2845;48.626;9.362;2023-06-22T06:42:10;23.90;95.40
5647;DHT22;2845;48.626;9.362;2023-06-22T06:44:44;26.60;95.80
5647;DHT22;2845;48.626;9.362;2023-06-22T06:47:19;25.90;95.50
5647;DHT22;2845;48.626;9.362;2023-06-22T06:49:53;25.30;95.10
5647;DHT22;2845;48.626;9.362;2023-06-22T06:52:27;24.30;95.00
5647;DHT22;2845;48.626;9.362;2023-06-22T06:55:04;25.10;95.00
5647;DHT22;2845;48.626;9.362;2023-06-22T06:57:41;24.60;94.80
5647;DHT22;2845;48.626;9.362;2023-06-22T07:00:17;24.70;94.50
5647;DHT22;2845;48.626;9.362;2023-06-22T07:02:52;24.80;94.40
5647;DHT22;2845;48.626;9.362;2023-06-22T07:05:27;25.00;93.90
5647;DHT22;2845;48.626;9.362;2023-06-22T07:08:01;25.40;94.10
5647;DHT22;2845;48.626;9.362;2023-06-22T07:10:37;25.20;93.70
5647;DHT22;2845;48.626;9.362;2023-06-22T07:13:11;25.30;93.50
5647;DHT22;2845;48.626;9.362;2023-06-22T07:15:45;25.40;93.40
5647;DHT22;2845;48.626;9.362;2023-06-22T07:18:20;25.40;93.40
5647;DHT22;2845;48.626;9.362;2023-06-22T07:20:54;25.60;93.40
5647;DHT22;2845;48.626;9.362;2023-06-22T07:23:29;25.70;93.00
5647;DHT22;2845;48.626;9.362;2023-06-22T07:26:04;25.70;93.00
5647;DHT22;2845;48.626;9.362;2023-06-22T07:28:39;25.90;93.00
5647;DHT22;2845;48.626;9.362;2023-06-22T07:31:13;26.00;92.70
5647;DHT22;2845;48.626;9.362;2023-06-22T07:33:48;26.10;92.50
5647;DHT22;2845;48.626;9.362;2023-06-22T07:36:22;26.10;92.50
5647;DHT22;2845;48.626;9.362;2023-06-22T07:38:56;26.40;92.40
5647;DHT22;2845;48.626;9.362;2023-06-22T07:41:32;26.40;92.00
5647;DHT22;2845;48.626;9.362;2023-06-22T07:44:06;26.50;92.20
5647;DHT22;2845;48.626;9.362;2023-06-22T07:46:40;26.60;92.30
5647;DHT22;2845;48.626;9.362;2023-06-22T07:49:15;26.60;92.00
5647;DHT22;2845;48.626;9.362;2023-06-22T07:51:50;26.70;92.00
5647;DHT22;2845;48.626;9.362;2023-06-22T07:54:24;26.80;91.70
5647;DHT22;2845;48.626;9.362;2023-06-22T07:57:00;27.00;91.70
5647;DHT22;2845;48.626;9.362;2023-06-22T07:59:34;27.00;91.40
5647;DHT22;2845;48.626;9.362;2023-06-22T08:02:09;27.10;91.40
5647;DHT22;2845;48.626;9.362;2023-06-22T08:04:43;27.20;91.50
5647;DHT22;2845;48.626;9.362;2023-06-22T08:07:18;27.20;91.20
5647;DHT22;2845;48.626;9.362;2023-06-22T08:09:52;27.30;91.10
5647;DHT22;2845;48.626;9.362;2023-06-22T08:12:28;27.30;91.20
5647;DHT22;2845;48.626;9.362;2023-06-22T08:15:03;29.20;91.80
5647;DHT22;2845;48.626;9.362;2023-06-22T08:17:38;27.50;91.40
5647;DHT22;2845;48.626;9.362;2023-06-22T08:20:12;27.60;91.50
5647;DHT22;2845;48.626;9.362;2023-06-22T08:22:47;27.80;91.30
5647;DHT22;2845;48.626;9.362;2023-06-22T08:25:21;28.00;91.20
5647;DHT22;2845;48.626;9.362;2023-06-22T08:27:57;28.10;90.80
5647;DHT22;2845;48.626;9.362;2023-06-22T08:30:31;28.10;90.70
5647;DHT22;2845;48.626;9.362;2023-06-22T08:33:05;28.30;90.70
5647;DHT22;2845;48.626;9.362;2023-06-22T08:35:40;28.10;90.50
5647;DHT22;2845;48.626;9.362;2023-06-22T08:38:14;28.20;90.30
5647;DHT22;2845;48.626;9.362;2023-06-22T08:40:50;28.30;90.30
5647;DHT22;2845;48.626;9.362;2023-06-22T08:43:26;28.30;90.20
5647;DHT22;2845;48.626;9.362;2023-06-22T08:46:00;28.40;90.30
5647;DHT22;2845;48.626;9.362;2023-06-22T08:48:35;28.60;90.10
5647;DHT22;2845;48.626;9.362;2023-06-22T08:51:09;29.30;89.80
5647;DHT22;2845;48.626;9.362;2023-06-22T08:53:43;29.00;89.10
5647;DHT22;2845;48.626;9.362;2023-06-22T08:56:18;29.10;89.10
5647;DHT22;2845;48.626;9.362;2023-06-22T08:58:54;29.20;88.80
5647;DHT22;2845;48.626;9.362;2023-06-22T09:01:29;30.00;89.50
5647;DHT22;2845;48.626;9.362;2023-06-22T09:04:04;29.30;88.20
5647;DHT22;2845;48.626;9.362;2023-06-22T09:06:40;29.50;88.20
5647;DHT22;2845;48.626;9.362;2023-06-22T09:09:18;31.50;89.00
5647;DHT22;2845;48.626;9.362;2023-06-22T09:11:52;29.70;87.40
5647;DHT22;2845;48.626;9.362;2023-06-22T09:14:28;30.30;87.90
5647;DHT22;2845;48.626;9.362;2023-06-22T09:17:02;29.80;86.70
5647;DHT22;2845;48.626;9.362;2023-06-22T09:19:37;29.80;86.70
5647;DHT22;2845;48.626;9.362;2023-06-22T09:22:11;30.00;86.90
5647;DHT22;2845;48.626;9.362;2023-06-22T09:24:45;30.20;86.70
5647;DHT22;2845;48.626;9.362;2023-06-22T09:27:20;30.30;86.50
5647;DHT22;2845;48.626;9.362;2023-06-22T09:29:56;30.20;86.20
5647;DHT22;2845;48.626;9.362;2023-06-22T09:32:31;30.30;86.40
5647;DHT22;2845;48.626;9.362;2023-06-22T09:35:06;30.30;85.90
5647;DHT22;2845;48.626;9.362;2023-06-22T09:37:44;30.20;85.60
5647;DHT22;2845;48.626;9.362;2023-06-22T09:40:18;30.30;85.90
5647;DHT22;2845;48.626;9.362;2023-06-22T09:42:53;30.40;86.00
5647;DHT22;2845;48.626;9.362;2023-06-22T09:45:28;30.70;85.90
5647;DHT22;2845;48.626;9.362;2023-06-22T09:48:03;30.80;85.30
5647;DHT22;2845;48.626;9.362;2023-06-22T09:50:37;31.00;84.80
5647;DHT22;2845;48.626;9.362;2023-06-22T09:53:12;31.00;84.60
5647;DHT22;2845;48.626;9.362;2023-06-22T09:55:46;31.00;84.80
5647;DHT22;2845;48.626;9.362;2023-06-22T09:58:20;31.10;84.60
5647;DHT22;2845;48.626;9.362;2023-06-22T10:00:56;31.10;84.20
5647;DHT22;2845;48.626;9.362;2023-06-22T10:03:30;31.00;83.90
5647;DHT22;2845;48.626;9.362;2023-06-22T10:06:05;30.70;83.90
5647;DHT22;2845;48.626;9.362;2023-06-22T10:08:40;30.80;84.00
5647;DHT22;2845;48.626;9.362;2023-06-22T10:11:14;30.80;84.60
5647;DHT22;2845;48.626;9.362;2023-06-22T10:13:49;31.00;83.90
5647;DHT22;2845;48.626;9.362;2023-06-22T10:16:30;31.30;83.80
5647;DHT22;2845;48.626;9.362;2023-06-22T10:19:05;31.50;83.30
5647;DHT22;2845;48.626;9.362;2023-06-22T10:21:39;31.70;82.60
5647;DHT22;2845;48.626;9.362;2023-06-22T10:24:13;32.00;82.60
5647;DHT22;2845;48.626;9.362;2023-06-22T10:26:48;32.10;81.10
5647;DHT22;2845;48.626;9.362;2023-06-22T10:29:22;32.10;81.60
5647;DHT22;2845;48.626;9.362;2023-06-22T10:31:57;32.20;81.40
5647;DHT22;2845;48.626;9.362;2023-06-22T10:34:32;32.30;80.80
5647;DHT22;2845;48.626;9.362;2023-06-22T10:37:06;32.50;80.70
5647;DHT22;2845;48.626;9.362;2023-06-22T10:39:40;32.50;79.90
5647;DHT22;2845;48.626;9.362;2023-06-22T10:42:15;32.60;79.80
5647;DHT22;2845;48.626;9.362;2023-06-22T10:44:49;32.50;80.00
5647;DHT22;2845;48.626;9.362;2023-06-22T10:47:25;32.40;79.70
5647;DHT22;2845;48.626;9.362;2023-06-22T10:49:59;32.40;79.30
5647;DHT22;2845;48.626;9.362;2023-06-22T10:52:34;32.40;79.00
5647;DHT22;2845;48.626;9.362;2023-06-22T10:55:08;32.80;78.20
5647;DHT22;2845;48.626;9.362;2023-06-22T10:57:43;33.10;77.90
5647;DHT22;2845;48.626;9.362;2023-06-22T11:00:20;33.30;78.20
5647;DHT22;2845;48.626;9.362;2023-06-22T11:02:56;33.50;77.70
5647;DHT22;2845;48.626;9.362;2023-06-22T11:05:31;33.60;77.40
5647;DHT22;2845;48.626;9.362;2023-06-22T11:08:06;33.70;77.80
5647;DHT22;2845;48.626;9.362;2023-06-22T11:10:40;33.70;76.70
5647;DHT22;2845;48.626;9.362;2023-06-22T11:13:14;33.80;76.90
5647;DHT22;2845;48.626;9.362;2023-06-22T11:15:48;33.90;77.10
5647;DHT22;2845;48.626;9.362;2023-06-22T11:18:24;34.10;77.20
5647;DHT22;2845;48.626;9.362;2023-06-22T11:20:58;34.30;76.80
5647;DHT22;2845;48.626;9.362;2023-06-22T11:23:33;34.40;76.20
5647;DHT22;2845;48.626;9.362;2023-06-22T11:26:07;34.30;76.30
5647;DHT22;2845;48.626;9.362;2023-06-22T11:28:43;34.30;76.20
5647;DHT22;2845;48.626;9.362;2023-06-22T11:31:17;34.40;76.10
5647;DHT22;2845;48.626;9.362;2023-06-22T11:34:00;34.40;75.90
5647;DHT22;2845;48.626;9.362;2023-06-22T11:36:34;34.40;75.90
5647;DHT22;2845;48.626;9.362;2023-06-22T11:39:08;34.40;75.80
5647;DHT22;2845;48.626;9.362;2023-06-22T11:41:43;34.40;75.70
5647;DHT22;2845;48.626;9.362;2023-06-22T11:44:18;34.50;75.30
5647;DHT22;2845;48.626;9.362;2023-06-22T11:46:52;34.50;73.90
5647;DHT22;2845;48.626;9.362;2023-06-22T11:49:28;34.50;74.80
5647;DHT22;2845;48.626;9.362;2023-06-22T11:52:02;34.20;75.10
5647;DHT22;2845;48.626;9.362;2023-06-22T11:54:36;33.90;76.10
5647;DHT22;2845;48.626;9.362;2023-06-22T11:57:11;33.70;76.50
5647;DHT22;2845;48.626;9.362;2023-06-22T11:59:45;33.60;76.90
5647;DHT22;2845;48.626;9.362;2023-06-22T12:02:19;33.50;77.00
5647;DHT22;2845;48.626;9.362;2023-06-22T12:04:55;33.70;75.50
5647;DHT22;2845;48.626;9.362;2023-06-22T12:07:30;33.90;74.70
5647;DHT22;2845;48.626;9.362;2023-06-22T12:10:05;34.30;74.30
5647;DHT22;2845;48.626;9.362;2023-06-22T12:12:40;34.60;74.00
5647;DHT22;2845;48.626;9.362;2023-06-22T12:15:15;34.70;74.50
5647;DHT22;2845;48.626;9.362;2023-06-22T12:17:49;34.70;73.40
5647;DHT22;2845;48.626;9.362;2023-06-22T12:20:25;34.60;73.90
5647;DHT22;2845;48.626;9.362;2023-06-22T12:23:01;34.60;73.60
5647;DHT22;2845;48.626;9.362;2023-06-22T12:25:35;34.50;72.90
5647;DHT22;2845;48.626;9.362;2023-06-22T12:28:09;34.40;72.40
5647;DHT22;2845;48.626;9.362;2023-06-22T12:30:44;34.20;73.50
5647;DHT22;2845;48.626;9.362;2023-06-22T12:33:18;34.00;73.70
5647;DHT22;2845;48.626;9.362;2023-06-22T12:35:54;33.80;75.30
5647;DHT22;2845;48.626;9.362;2023-06-22T12:38:28;33.50;75.80
5647;DHT22;2845;48.626;9.362;2023-06-22T12:41:02;33.20;75.50
5647;DHT22;2845;48.626;9.362;2023-06-22T12:43:36;33.00;76.50
5647;DHT22;2845;48.626;9.362;2023-06-22T12:46:10;32.80;76.70
5647;DHT22;2845;48.626;9.362;2023-06-22T12:48:45;32.60;77.10
5647;DHT22;2845;48.626;9.362;2023-06-22T12:51:23;32.40;77.50
5647;DHT22;2845;48.626;9.362;2023-06-22T12:53:58;32.40;77.20
5647;DHT22;2845;48.626;9.362;2023-06-22T12:56:32;32.60;76.00
5647;DHT22;2845;48.626;9.362;2023-06-22T12:59:06;32.70;75.70
5647;DHT22;2845;48.626;9.362;2023-06-22T13:01:41;32.80;75.40
5647;DHT22;2845;48.626;9.362;2023-06-22T13:04:16;32.60;75.60
5647;DHT22;2845;48.626;9.362;2023-06-22T13:06:52;32.60;76.20
5647;DHT22;2845;48.626;9.362;2023-06-22T13:09:27;32.60;76.40
5647;DHT22;2845;48.626;9.362;2023-06-22T13:12:01;32.80;76.30
5647;DHT22;2845;48.626;9.362;2023-06-22T13:14:35;32.90;76.10
5647;DHT22;2845;48.626;9.362;2023-06-22T13:17:09;32.90;76.10
5647;DHT22;2845;48.626;9.362;2023-06-22T13:19:45;33.20;76.40
5647;DHT22;2845;48.626;9.362;2023-06-22T13:22:30;33.60;73.70
5647;DHT22;2845;48.626;9.362;2023-06-22T13:25:06;33.90;73.50
5647;DHT22;2845;48.626;9.362;2023-06-22T13:27:44;34.00;74.20
5647;DHT22;2845;48.626;9.362;2023-06-22T13:30:19;34.20;73.30
5647;DHT22;2845;48.626;9.362;2023-06-22T13:32:53;34.40;73.10
5647;DHT22;2845;48.626;9.362;2023-06-22T13:35:27;34.40;73.00
5647;DHT22;2845;48.626;9.362;2023-06-22T13:38:03;34.60;72.90
5647;DHT22;2845;48.626;9.362;2023-06-22T13:40:38;34.80;73.30
5647;DHT22;2845;48.626;9.362;2023-06-22T13:43:12;34.90;71.90
5647;DHT22;2845;48.626;9.362;2023-06-22T13:45:46;34.80;72.00
5647;DHT22;2845;48.626;9.362;2023-06-22T13:48:20;34.80;72.40
5647;DHT22;2845;48.626;9.362;2023-06-22T13:50:56;34.70;72.10
5647;DHT22;2845;48.626;9.362;2023-06-22T13:53:32;34.50;71.90
5647;DHT22;2845;48.626;9.362;2023-06-22T13:56:06;34.30;71.90
5647;DHT22;2845;48.626;9.362;2023-06-22T13:58:40;34.20;71.90
5647;DHT22;2845;48.626;9.362;2023-06-22T14:01:16;34.20;71.70
5647;DHT22;2845;48.626;9.362;2023-06-22T14:03:50;34.10;71.70
5647;DHT22;2845;48.626;9.362;2023-06-22T14:06:25;34.00;71.60
5647;DHT22;2845;48.626;9.362;2023-06-22T14:09:00;34.10;72.40
5647;DHT22;2845;48.626;9.362;2023-06-22T14:11:35;34.00;72.20
5647;DHT22;2845;48.626;9.362;2023-06-22T14:14:10;33.90;72.10
5647;DHT22;2845;48.626;9.362;2023-06-22T14:16:44;33.90;72.40
5647;DHT22;2845;48.626;9.362;2023-06-22T14:19:18;33.90;69.60
5647;DHT22;2845;48.626;9.362;2023-06-22T14:21:53;33.90;70.00
5647;DHT22;2845;48.626;9.362;2023-06-22T14:24:29;33.90;71.00
5647;DHT22;2845;48.626;9.362;2023-06-22T14:27:03;33.80;71.00
5647;DHT22;2845;48.626;9.362;2023-06-22T14:29:40;33.60;71.40
5647;DHT22;2845;48.626;9.362;2023-06-22T14:32:15;33.70;70.80
5647;DHT22;2845;48.626;9.362;2023-06-22T14:34:49;33.90;71.20
5647;DHT22;2845;48.626;9.362;2023-06-22T14:37:23;34.20;71.40
5647;DHT22;2845;48.626;9.362;2023-06-22T14:39:59;34.60;71.00
5647;DHT22;2845;48.626;9.362;2023-06-22T14:42:33;34.60;70.30
5647;DHT22;2845;48.626;9.362;2023-06-22T14:45:08;34.50;70.30
5647;DHT22;2845;48.626;9.362;2023-06-22T14:47:42;34.30;69.40
5647;DHT22;2845;48.626;9.362;2023-06-22T14:50:17;34.20;70.00
5647;DHT22;2845;48.626;9.362;2023-06-22T14:52:51;34.10;70.00
5647;DHT22;2845;48.626;9.362;2023-06-22T14:55:27;34.30;69.90
5647;DHT22;2845;48.626;9.362;2023-06-22T14:58:01;34.50;70.10
5647;DHT22;2845;48.626;9.362;2023-06-22T15:00:35;35.00;70.20
5647;DHT22;2845;48.626;9.362;2023-06-22T15:03:10;35.30;69.90
5647;DHT22;2845;48.626;9.362;2023-06-22T15:05:50;35.50;69.10
5647;DHT22;2845;48.626;9.362;2023-06-22T15:08:25;37.60;70.60
5647;DHT22;2845;48.626;9.362;2023-06-22T15:11:00;35.20;68.90
5647;DHT22;2845;48.626;9.362;2023-06-22T15:13:38;34.80;69.90
5647;DHT22;2845;48.626;9.362;2023-06-22T15:16:13;34.60;70.20
5647;DHT22;2845;48.626;9.362;2023-06-22T15:18:47;34.30;70.80
5647;DHT22;2845;48.626;9.362;2023-06-22T15:21:21;34.40;71.10
5647;DHT22;2845;48.626;9.362;2023-06-22T15:23:56;34.50;70.80
5647;DHT22;2845;48.626;9.362;2023-06-22T15:26:31;34.40;70.80
5647;DHT22;2845;48.626;9.362;2023-06-22T15:29:05;34.30;70.90
5647;DHT22;2845;48.626;9.362;2023-06-22T15:31:40;34.10;71.30
5647;DHT22;2845;48.626;9.362;2023-06-22T15:34:15;33.90;70.90
5647;DHT22;2845;48.626;9.362;2023-06-22T15:36:49;33.60;71.30
5647;DHT22;2845;48.626;9.362;2023-06-22T15:39:25;33.20;71.80
5647;DHT22;2845;48.626;9.362;2023-06-22T15:42:00;33.00;72.30
5647;DHT22;2845;48.626;9.362;2023-06-22T15:44:35;32.70;72.40
5647;DHT22;2845;48.626;9.362;2023-06-22T15:47:09;32.60;69.60
5647;DHT22;2845;48.626;9.362;2023-06-22T15:49:43;32.30;70.20
5647;DHT22;2845;48.626;9.362;2023-06-22T15:52:18;32.10;68.50
5647;DHT22;2845;48.626;9.362;2023-06-22T15:54:52;31.90;69.40
5647;DHT22;2845;48.626;9.362;2023-06-22T15:57:31;31.80;68.50
5647;DHT22;2845;48.626;9.362;2023-06-22T16:00:08;31.70;68.30
5647;DHT22;2845;48.626;9.362;2023-06-22T16:02:47;31.70;68.30
5647;DHT22;2845;48.626;9.362;2023-06-22T16:05:21;31.60;68.40
5647;DHT22;2845;48.626;9.362;2023-06-22T16:07:56;31.50;68.70
5647;DHT22;2845;48.626;9.362;2023-06-22T16:10:30;31.40;69.10
5647;DHT22;2845;48.626;9.362;2023-06-22T16:13:06;31.30;68.40
5647;DHT22;2845;48.626;9.362;2023-06-22T16:15:41;31.00;68.40
5647;DHT22;2845;48.626;9.362;2023-06-22T16:18:15;30.90;67.20
5647;DHT22;2845;48.626;9.362;2023-06-22T16:20:49;30.60;68.30
5647;DHT22;2845;48.626;9.362;2023-06-22T16:23:24;30.50;68.60
5647;DHT22;2845;48.626;9.362;2023-06-22T16:25:58;30.40;67.40
5647;DHT22;2845;48.626;9.362;2023-06-22T16:28:34;30.20;68.30
5647;DHT22;2845;48.626;9.362;2023-06-22T16:31:08;30.10;68.60
5647;DHT22;2845;48.626;9.362;2023-06-22T16:33:42;30.10;68.40
5647;DHT22;2845;48.626;9.362;2023-06-22T16:36:20;30.00;68.70
5647;DHT22;2845;48.626;9.362;2023-06-22T16:38:55;30.10;69.20
5647;DHT22;2845;48.626;9.362;2023-06-22T16:41:29;30.00;68.40
5647;DHT22;2845;48.626;9.362;2023-06-22T16:44:05;30.00;68.40
5647;DHT22;2845;48.626;9.362;2023-06-22T16:46:39;30.00;68.80
5647;DHT22;2845;48.626;9.362;2023-06-22T16:49:14;29.90;68.60
5647;DHT22;2845;48.626;9.362;2023-06-22T16:51:48;29.80;68.80
5647;DHT22;2845;48.626;9.362;2023-06-22T16:54:23;29.90;68.70